Bonneuil-Matours (86) - E2

Date : 25/05/2013
Distance : 4,700 km

Place Nom Licence Catégorie Club Temps min/km CN à J-60 Points Différence Nouveau CN
1 GIRARD Lucille 19689 D18 3705CE 0:35:39 7'35 5356 6243 +887 5646
2 MORLON Marie 2100 D45 5702LO 0:36:32 7'46 5836 6092 +256 5891
3 VARRON Stephanie 13244 D40 9404IF 0:39:28 8'23 5298 5639 +341 5384
4 HABERKORN Chloé 10396 D18 2105BO 0:40:04 8'31 5619 5555 -64 5931
5 PERRIN Odile 2731 D40 4201RA 0:40:32 8'37 5667 5491 -176 5515
6 PALCAU Marie-Violaine 2723 D45 2109BO 0:42:01 8'56 5642 5297 -345 5642
7 OLIVIER Sandra 2179 D45 7716IF 0:42:04 8'57 5544 5291 -253 5515
8 LUTHRINGER Coline 10091 D18 8809LO 0:42:44 9'05 4498 5208 +710 4733
9 BODY Mathilde 10184 D18 7305RA 0:42:48 9'06 5173 5200 +27 5261
10 ROULLEAUX Julie 11559 D18 9105IF 0:42:53 9'07 4844 5190 +346 4985
11 PETER-JAN Lucile 19276 D18 3705CE 0:43:04 9'09 4583 5168 +585 4957
12 DUQUENNE Audrey 23885 D18 5907NO 0:44:11 9'24 4593 5037 +444 4659
13 ANTOINE Christine 2920 D45 1403NM 0:44:31 9'28 5020 5000 -20 4741
14 BACHER Edith 706 D45 2517FC 0:44:47 9'31 4591 4970 +379 4784
15 BONDIVENNE Perrine 8914 D18 6408AQ 0:44:58 9'34 5085 4950 -135 5105
16 KOWALSKI Rose 28069 D40 4705AQ 0:45:11 9'36 4926 4630
17 BRAULT LIGNEREUX Marie Christine 24679 D45 1601PC 0:46:34 9'54 4611 4780 +169 4601
18 CRETE Angélique 18827 D40 6008PI 0:47:04 10'00 4095 4729 +634 4389
19 BASSET Fiona 23384 D18 6911RA 0:47:10 10'02 4643 4719 +76 4789
20 RENUCCI Maroussia 16297 D40 4504CE 0:47:24 10'05 4219 4696 +477 4496
21 HABERKORN Valérie 2717 D40 2105BO 0:47:30 10'06 5397 4686 -711 5176
22 BORNARD Julie 9402 D18 7305RA 0:47:38 10'08 4771 4673 -98 4890
23 GUINOT Marion 15018 D18 2108BO 0:48:26 10'18 3985 4595 +610 4147
24 POURRE Valerie 738 D45 2508FC 0:48:37 10'20 4194 4578 +384 4265
25 DANNECKER Laurence 19725 D40 3913FC 0:48:57 10'24 4290 4547 +257 4610
26 ERBLAND Christine 23153 D40 9105IF 0:49:42 10'34 4484 4478 -6 4853
27 VILLAR Aurélie 18133 D35 6008PI 0:49:42 10'34 4567 4478 -89 4806
28 TREMOULET Carole 13824 D40 4601MP 0:50:24 10'43 3959 4416 +457 4055
29 ALAFORT Lucie 22475 D18 5116CA 0:50:28 10'44 4095 4410 +315 4260
30 GUIDI Claude 8505 D40 6906RA 0:51:05 10'52 4635 4357 -278 4252
31 ESCURET Andrea 1447 D45 1307PR 0:51:08 10'52 4107 4353 +246 4338
32 MAKOVICKA Veronique 2378 D45 6804AL 0:51:28 10'57 4453 4325 -128 4562
33 PICAZO Sophie 17789 D45 8405PR 0:51:45 11'00 5060 4301 -759 4910
34 ALMQVIST HAAS Hedwig 26667 D18 2606RA 0:51:48 11'01 4297 4039
35 GRENDEL Marie 16811 D40 2704NM 0:51:49 11'01 4487 4295 -192 4534
36 CRETE Camille 18828 D18 6008PI 0:51:52 11'02 4084 4291 +207 4190
37 RIVOLLIER Isaline 22451 D18 4201RA 0:52:23 11'08 4242 4249 +7 4200
38 DEMESSANCE Annaik 25595 D18 6008PI 0:52:47 11'13 3556 4217 +661 3750
39 FALGA Christina 1241 D45 6911RA 0:52:55 11'15 4106 4206 +100 3935
40 ROBYN Laurence 10766 D45 5906NO 0:52:59 11'16 4232 4201 -31 4198
41 CHARDOT Marion 22315 D18 7807IF 0:53:02 11'17 4290 4197 -93 4245
42 GIRARD Melissa 28118 D18 5907NO 0:53:07 11'18 4190 3647
43 DECROIX Veronique 2819 D40 7407RA 0:53:16 11'20 4200 4178 -22 4239
44 GUILMAIN Melanie 20572 D18 6208NO 0:53:43 11'25 4078 4143 +65 4082
45 FIGUIERE Valérie 274 D45 7109BO 0:53:52 11'27 4223 4132 -91 4255
46 BACHELET Valérie 9424 D45 5907NO 0:54:09 11'31 2413 4110 +1697 3863
47 LE CAM Muriel 19391 D40 3502BR 0:54:36 11'37 4310 4076 -234 4460
48 COUPAT Elisabeth 7248 D40 2606RA 0:54:42 11'38 0 4069 3925
49 ANDRE Isabelle 25211 D40 4010AQ 0:55:29 11'48 3792 4011 +219 3937
50 POURRE Nadine 12101 D45 6803AL 0:55:37 11'50 3566 4002 +436 3784
51 GUENIN Nathalie 16950 D40 5116CA 0:55:57 11'54 4099 3978 -121 4103
52 RAGAZZI Isabelle 23242 D45 5407LO 0:56:16 11'58 3895 3956 +61 3931
53 BONORA Marine 11542 D18 6906RA 0:56:17 11'58 3659 3954 +295 3779
54 FRANCOIS Aline 13688 D40 6803AL 0:56:27 12'00 3878 3943 +65 3897
55 LAPEYRE Frederique 17633 D45 1905LI 0:56:50 12'05 4373 3916 -457 4335
56 CLERC Caroline 10493 D40 7305RA 0:56:55 12'06 4070 3910 -160 4070
57 ROUX Catherine 13270 D40 6205NO 0:56:55 12'06 4313 3910 -403 4404
58 GIRE Camille 886 D45 7707IF 0:57:02 12'08 4389 3902 -487 4535
59 BACHER Amelie 10072 D18 2517FC 0:57:04 12'08 4083 3900 -183 4723
60 JANSSON Jeanette 9597 D45 7807IF 0:57:10 12'09 5060 3893 -1167 4944
61 BEGUINOT Claire 13961 D18 5702LO 0:57:30 12'14 3173 3871 +698 3402
62 VERDIER Christine 10215 D45 6408AQ 0:57:32 12'14 4683 3869 -814 4513
63 GOURLAIN Mathilde 18299 D18 6205NO 0:57:58 12'20 3141 3840 +699 3393
64 VORWERK Caroline 25745 D40 4201RA 0:58:02 12'20 3236 3835 +599 3266
65 NICOLAS-TOUSSAINT Brigitte 19878 D40 7703IF 0:58:10 12'22 3991 3826 -165 3992
66 BONORA Beatrice 243 D45 6906RA 0:58:15 12'23 4302 3821 -481 4281
67 BINAY Sarah 24988 D18 2704NM 0:58:17 12'24 3565 3819 +254 3538
68 DODIER Orianne 10485 D18 8405PR 0:58:41 12'29 4269 3793 -476 4178
69 DAVID Céline 26993 D45 9006FC 0:58:42 12'29 0 3792 4289
70 VERNOTTE Justine 23633 D18 1905LI 0:58:49 12'30 3302 3784 +482 3465
71 CHAILLARD Marketa 1928 D45 7305RA 0:58:51 12'31 3881 3782 -99 3818
72 DELHOTAL Valerie 7002 D45 1104LR 0:59:27 12'38 4047 3744 -303 4093
73 CHAMPTIAUX Isabelle 227 D40 1202MP 0:59:27 12'38 4146 3744 -402 3903
74 SERRAND Hélène 14863 D45 3105MP 0:59:30 12'39 4606 3741 -865 4458
75 GUINOT Joelle 18977 D45 1905LI 1:00:06 12'47 3171 3703 +532 3334
76 GILLET Annabelle 19601 D45 5116CA 1:00:13 12'48 3704 3696 -8 3716
77 HUGUET Carine 22312 D40 4705AQ 1:00:19 12'50 4197 3690 -507 4297
78 MORLON Louise 7788 D18 5702LO 1:00:24 12'51 4017 3685 -332 4029
79 PETINON Christine 18601 D40 2301LI 1:00:24 12'51 4473 3685 -788 4366
80 DENIER Anne-Françoise 23851 D40 7109BO 1:01:02 12'59 4161 3647 -514 4350
81 DOGUET Sylvie 14544 D40 4705AQ 1:01:30 13'05 4219 3619 -600 4219
82 VERDIN Alix 15276 D18 7109BO 1:01:35 13'06 3647 3614 -33 3781
83 LEMERCIER Celine 10527 D40 5703LO 1:01:41 13'07 4308 3608 -700 4181
84 PASSELERGUE Marianne 19215 D40 7808IF 1:01:44 13'08 4015 3605 -410 3993
85 GUETAZ Laure 13150 D45 3810RA 1:01:58 13'11 3617 3592 -25 3650
86 ARDILOUZE Elodie 26070 D18 4705AQ 1:02:15 13'14 3160 3575 +415 3477
87 MOY Sandrine 26303 D45 7403RA 1:02:20 13'15 3514 3571 +57 3392
88 ASTOLFI Judith 21418 D40 5909NO 1:02:31 13'18 3483 3560 +77 3563
89 BONDIVENNE Marie 8047 D45 6408AQ 1:02:40 13'20 3872 3552 -320 3903
90 MORVAN Clotilde 15891 D45 2906BR 1:03:07 13'25 3785 3526 -259 3983
91 KORCHAK Nathalie 13638 D18 6806AL 1:03:30 13'30 4185 3505 -680 3907
92 DOUSSET Corinne 20729 D45 4709AQ 1:03:46 13'34 3866 3490 -376 3839
93 CALANDRY Lucia 9352 D45 7404RA 1:03:49 13'34 3639 3488 -151 3377
94 HAURY Evelyne 13692 D45 6806AL 1:04:14 13'40 4381 3465 -916 4375
95 FLORENT Roxane 26927 D18 5907NO 1:04:19 13'41 4075 3461 -614 4011
96 SARION Emilie 16048 D18 4705AQ 1:04:56 13'48 3519 3428 -91 3623
97 RAUTURIER Nathalie 3200 D45 7807IF 1:05:09 13'51 3778 3416 -362 3664
98 ROUX Alicia 12518 D18 7703IF 1:05:14 13'52 2406 3412 +1006 2784
99 CONIEL Anne 14884 D40 5604BR 1:05:22 13'54 3272 3405 +133 3428
100 VIDEIRA Christelle 24886 D40 3914FC 1:05:32 13'56 2826 3396 +570 3404
101 BESTEL Florence 17309 D40 9105IF 1:05:41 13'58 4062 3389 -673 3996
102 DELENNE A-Francoise 11495 D45 1307PR 1:06:10 14'04 3840 3364 -476 3833
103 ROUX Katell 10822 D40 7703IF 1:06:18 14'06 3357 3156
104 BONNEAU Catherine 3354 D45 7719IF 1:06:21 14'07 3740 3354 -386 3676
105 LAVALLEE Nathalie 26461 D40 6008PI 1:06:30 14'08 2565 3347 +782 3072
106 ANGLADE Françoise 22255 D45 5604BR 1:06:41 14'11 3455 3338 -117 3407
107 LE VERGE Helene 15367 D40 2904BR 1:07:14 14'18 3678 3310 -368 3321
108 SOUAN Cécile 26423 D18 7707IF 1:07:20 14'19 3341 3306 -35 3881
109 BESTEL Sandra 10758 D18 9105IF 1:07:28 14'21 3916 3299 -617 3972
110 MIAILHE Pascale 12651 D40 8404PR 1:07:39 14'23 4885 3290 -1595 4110
111 LE CAM Miti 27711 D18 3502BR 1:08:01 14'28 0 3272 2861
112 HUCHON Patricia 25179 D45 2109BO 1:08:50 14'38 2521 3233 +712 3507
113 BERGANDER Anna 13303 D40 3319AQ 1:09:08 14'42 3326 3219 -107 3556
114 TEGNY Laurine 23659 D18 6205NO 1:09:18 14'44 2670 3212 +542 2899
115 GRATIEN Nathalie 10283 D45 7403RA 1:09:21 14'45 3003 3209 +206 3134
116 TISSEYRE-BOPP Bénédicte 18150 D45 1104LR 1:09:49 14'51 3945 3188 -757 3879
117 DEPERSIN Isabelle 17899 D40 5907NO 1:10:08 14'55 0 3174 2555
118 SERINET Carole 5485 D40 3502BR 1:10:21 14'58 3248 3164 -84 3146
119 VERCAUTEREN M-Claude 16229 D40 6008PI 1:10:34 15'00 4443 3154 -1289 4366
120 FOUCHER Marie 23997 D45 7716IF 1:10:38 15'01 2099 3151 +1052 2639
121 CAMDESSANCHE Emeline 24907 D18 9502IF 1:10:40 15'02 2713 3150 +437 2895
122 CLAUZEAU Cléa 21958 D18 1705PC 1:10:53 15'04 3353 3140 -213 3261
123 VALETTE Isabelle 2270 D40 6913RA 1:10:56 15'05 3296 3138 -158 2861
124 HERITIER Veronique 24784 D45 4201RA 1:11:13 15'09 3867 3125 -742 3475
125 PINZELLI Tamara 23551 D18 1905LI 1:11:18 15'10 3516 3122 -394 3439
126 CLOUET Geneviève 23816 D45 5609BR 1:11:38 15'14 3166 3107 -59 3324
127 GALMICHE Cendra 26401 D40 3914FC 1:11:54 15'17 2740 3096 +356 2875
128 LOTERIE Murielle 7044 D45 5907NO 1:12:31 15'25 3784 3069 -715 3759
129 GUILLOT Jeanne 20364 D18 7004FC 1:12:49 15'29 3552 3057 -495 3552
130 BONNEFON Christelle 25976 D45 3318AQ 1:13:06 15'33 3179 3045 -134 3199
131 MERIGUET Valérie 16687 D45 7807IF 1:13:13 15'34 3094 3040 -54 3049
132 BERCHE Léa 24420 D18 5907NO 1:13:57 15'44 2935 3010 +75 3032
133 ARROQUI Anne-sophie 23424 D40 5909NO 1:14:01 15'44 3282 3007 -275 2863
134 DUVALLET Marion 26487 D18 2704NM 1:14:12 15'47 2778 3000 +222 2888
135 AZEMA Guillemette 24664 D18 8105MP 1:15:06 15'58 2907 2964 +57 3060
136 DASILVA Irene 878 D45 7707IF 1:15:28 16'03 3395 2949 -446 3395
137 HERVE-JOUSSE Odile 13784 D45 9109IF 1:15:34 16'04 3338 2945 -393 3450
138 ELVER Judith 20660 D45 9105IF 1:15:58 16'09 2732 2930 +198 2992
139 MONESTES Nathalie 24036 D45 4709AQ 1:16:05 16'11 2850 2925 +75 2943
140 ACKERER Martine 26236 D45 1905LI 1:16:58 16'22 2056 2892 +836 2379
141 LEBIHAN Barbara 11508 D18 6804AL 1:17:08 16'24 2886 2595
142 MOREL Fanny 25556 D18 9502IF 1:17:14 16'25 3087 2882 -205 3150
143 GENNARO Beatrice 20862 D40 3811RA 1:17:25 16'28 3265 2875 -390 3339
144 VERNOTTE Louise 23552 D18 1905LI 1:18:16 16'39 3839 2844 -995 3839
145 BISSIERE Camille 19486 D18 4709AQ 1:19:06 16'49 3546 2814 -732 3531
146 CLOUARD Florence 8549 D45 7807IF 1:20:19 17'05 3827 2771 -1056 3708
147 LEMERCIER Victoire 11454 D18 5407LO 1:20:22 17'05 3929 2769 -1160 3732
148 CREUSAT Fanny 25989 D40 8809LO 1:22:02 17'27 3914 2713 -1201 3914
149 INDEAUX Catherine 10394 D40 6913RA 1:22:32 17'33 2561 2697 +136 2676
150 CHARDOT Ulrike 22314 D45 7807IF 1:22:59 17'39 2867 2682 -185 2778
151 PORRET Marine 16239 D18 3502BR 1:23:06 17'40 2678 2517
152 DOUTRELANT Justine 26929 D18 5907NO 1:23:21 17'44 2751 2670 -81 2789
153 GINTZBURGER Véronique 25055 D40 7407RA 1:23:22 17'44 2999 2670 -329 2999
154 ROBBE Solène 24338 D45 9105IF 1:23:57 17'51 2658 2651 -7 2664
155 MAURIES Alice 24190 D18 8105MP 1:24:25 17'57 2854 2637 -217 2854
156 ELIAS Maria 24546 D40 3319AQ 1:24:30 17'58 2341 2634 +293 2512
157 BOINOT NELLY 27816 D40 7905PC 1:25:41 18'13 2598 2442
158 DESCOURVIERES Claire 25549 D40 7407RA 1:27:22 18'35 2581 2548 -33 2742
159 LAURENT Manon 25577 D18 5907NO 1:28:02 18'43 2535 2528 -7 2583
160 BEGU Aurore 9042 D40 7707IF 1:28:32 18'50 3025 2514 -511 3116
161 BULLIER Alisson 23427 D18 0207PI 1:29:26 19'01 2989 2489 -500 2945
162 VILLAME Uli 22384 D45 7719IF 1:30:15 19'12 3005 2466 -539 2686
163 CHAMPIGNY Laurence 25032 D45 8311AZ 1:30:16 19'12 2288 2466 +178 2264
164 VILLEDEY Isabelle 19950 D45 5302PL 1:30:56 19'20 0 2448 2236
165 BEAUVISAGE Fabienne 13740 D45 7807IF 1:31:13 19'24 2935 2440 -495 2815
166 BELLE Emmanuelle 8258 D40 6205NO 1:31:30 19'28 3215 2432 -783 3196
167 HOURCADETTE Stephanie 13903 D45 1705PC 1:32:41 19'43 0 2401 2305
168 LECOEUCHE Charlotte 22216 D18 5906NO 1:34:13 20'02 2774 2362 -412 2774
169 GRANDJEAN Nathalie 3722 D45 8809LO 1:34:39 20'08 2884 2352 -532 2685
170 MOREAU Elisabeth 23799 D40 7808IF 1:34:47 20'10 3218 2348 -870 3218
171 PERROGON Dominique 21490 D45 1705PC 1:36:01 20'25 2613 2318 -295 2757
172 LEVREUX Nathalie 14946 D45 7807IF 1:36:16 20'28 3733 2312 -1421 3751
173 CHAUVINEAU Christine 15228 D45 7807IF 1:36:59 20'38 2876 2295 -581 2831
174 MEYER Catherine 20483 D45 6806AL 1:37:04 20'39 2448 2293 -155 3015
175 FORGET Sandrine 18745 D40 4708AQ 1:37:19 20'42 3158 2287 -871 3141
176 BERTOT Marie-Pierre 27749 D45 7004FC 1:38:11 20'53 0 2267 2176
177 PORRET Sophie 16236 D40 3502BR 1:39:11 21'06 2244 2109
178 VANOVERBERGHE Nathalie 22237 D45 6203NO 1:39:25 21'09 2969 2239 -730 3153
179 DANIEL Corinne 27918 D40 1905LI 1:40:05 21'17 0 2224 2341
180 LEWIS Nina 28186 D18 5906NO 1:40:11 21'18 2222 1763
181 MAYE-LASSERRE Marielle 22864 D45 6408AQ 1:41:25 21'34 3077 2195 -882 3035
182 DANELON Isabelle 13887 D40 2904BR 1:41:58 21'41 2183 2505
183 GUINOT Laurence 20804 D45 3914FC 1:42:56 21'54 2419 2162 -257 2164
184 GUILLOU Florence 28132 D45 2904BR 1:43:59 22'07 2140 1901
185 VOLANT Sophie 25230 D40 2904BR 1:46:01 22'33 1898 2099 +201 2266
186 PRUVOST Virginie 25881 D40 6208NO 1:51:50 23'47 2366 1990 -376 2604
187 REYDANT Juliette 19882 D18 2704NM 1:52:11 23'52 1976 1984 +8 1978
188 GUELENNOC Christine 17592 D45 2906BR 1:52:15 23'52 2854 1983 -871 2707
189 FRECCHIAMI Marie Agnes 25918 D45 4708AQ 1:53:41 24'11 2251 1958 -293 2493
190 GIRARD Florence 22478 D45 2508FC 1:54:18 24'19 1811 1947 +136 2326
191 COMMERE Véronique 23509 D40 6008PI 1:58:58 25'18 2172 1871 -301 2202
192 CAMAY-SCHOOR Lorena 22207 D18 1103LR 2:00:54 25'43 1225 1841 +616 1509
193 LAPLACE Christele 24798 D45 4902PL 2:01:32 25'51 2468 1831 -637 2074
194 BAILLET Léa 28183 D18 5906NO 2:07:26 27'06 1747 1642
195 SERRE Francine 3429 D45 5907NO 2:10:28 27'45 2374 1706 -668 2374
196 JAULIN Lydie 26223 D45 1705PC 2:20:49 29'57 2072 1581 -491 2683
GUILLOT Sylvie 20362 D45 7004FC pm None 3459 0 3370
ELTZER Marie 26848 D18 6804AL pm None 0 0 2920
FOL-RIBET Hélène 14939 D45 3105MP pm None 4109 0 3984
PIGEON Clémence 21260 D18 1403NM pm None 2033 0 2033
BEAUVIR Laurence 8536 D40 3502BR pm None 2973 0 2973
CORNAILLE Céline 25411 D40 4010AQ pm None 2363 0 2435
AUPERT Stephanie 26656 D40 4201RA pm None 0 0 1386